createdAt,value
2022-09-27T00:00:34.009Z,12.44
2022-09-27T00:01:34.013Z,12.43
2022-09-27T00:02:34.019Z,12.53
2022-09-27T00:03:33.879Z,12.48
2022-09-27T00:04:33.840Z,12.45
2022-09-27T00:05:33.790Z,12.50
2022-09-27T00:06:34.899Z,12.47
2022-09-27T00:07:33.701Z,12.58
2022-09-27T00:08:33.925Z,12.61
2022-09-27T00:09:33.609Z,12.62
2022-09-27T00:10:33.563Z,12.61
2022-09-27T00:11:33.519Z,12.55
2022-09-27T00:12:33.476Z,12.66
2022-09-27T00:13:33.433Z,12.50
2022-09-27T00:14:33.397Z,12.55
2022-09-27T00:15:33.346Z,12.44
2022-09-27T00:16:33.309Z,12.32
2022-09-27T00:17:33.249Z,12.39
2022-09-27T00:18:33.203Z,12.43
2022-09-27T00:19:33.161Z,12.36
2022-09-27T00:20:33.111Z,12.43
2022-09-27T00:21:33.068Z,12.45
2022-09-27T00:22:33.136Z,12.50
2022-09-27T00:23:32.977Z,12.47
2022-09-27T00:24:32.935Z,12.35
2022-09-27T00:25:32.894Z,12.32
2022-09-27T00:26:32.851Z,12.36
2022-09-27T00:27:32.803Z,12.33
2022-09-27T00:28:32.771Z,12.36
2022-09-27T00:29:32.710Z,12.28
2022-09-27T00:30:32.664Z,12.35
2022-09-27T00:31:32.687Z,12.36
2022-09-27T00:32:32.574Z,12.33
2022-09-27T00:33:32.528Z,12.53
2022-09-27T00:34:32.493Z,12.51
2022-09-27T00:35:32.462Z,12.50
2022-09-27T00:36:32.393Z,12.50
2022-09-27T00:37:32.351Z,12.47
2022-09-27T00:38:32.302Z,12.51
2022-09-27T00:39:32.263Z,12.45
2022-09-27T00:40:32.240Z,12.54
2022-09-27T00:41:32.186Z,12.47
2022-09-27T00:42:32.125Z,12.53
2022-09-27T00:43:32.255Z,12.47
2022-09-27T00:44:32.033Z,12.48
2022-09-27T00:45:31.992Z,12.63
2022-09-27T00:46:31.976Z,12.47
2022-09-27T00:47:31.894Z,12.45
2022-09-27T00:48:31.851Z,12.53
2022-09-27T00:49:31.833Z,12.47
2022-09-27T00:50:31.765Z,12.45
2022-09-27T00:51:31.718Z,12.50
2022-09-27T00:52:31.677Z,12.50
2022-09-27T00:53:31.629Z,12.47
2022-09-27T00:54:31.584Z,12.53
2022-09-27T00:55:31.858Z,12.29
2022-09-27T00:56:31.492Z,12.36
2022-09-27T00:57:31.447Z,12.37
2022-09-27T00:58:31.403Z,12.48
2022-09-27T00:59:31.357Z,12.45
2022-09-27T01:00:31.309Z,12.48
2022-09-27T01:01:31.378Z,12.50
2022-09-27T01:02:31.331Z,12.53
2022-09-27T01:03:31.175Z,12.44
2022-09-27T01:04:31.132Z,12.45
2022-09-27T01:05:31.091Z,12.33
2022-09-27T01:06:31.041Z,12.40
2022-09-27T01:07:31.011Z,12.43
2022-09-27T01:08:30.957Z,12.48
2022-09-27T01:09:30.911Z,12.39
2022-09-27T01:10:30.868Z,12.40
2022-09-27T01:11:30.821Z,12.39
2022-09-27T01:12:30.775Z,12.44
2022-09-27T01:13:30.745Z,12.33
2022-09-27T01:14:30.687Z,12.39
2022-09-27T01:15:30.651Z,12.35
2022-09-27T01:16:30.589Z,12.37
2022-09-27T01:17:30.551Z,12.50
2022-09-27T01:18:30.504Z,12.45
2022-09-27T01:19:30.475Z,12.45
2022-09-27T01:20:30.413Z,12.39
2022-09-27T01:21:30.367Z,12.33
2022-09-27T01:22:30.324Z,12.35
2022-09-27T01:23:30.276Z,12.32
2022-09-27T01:24:30.232Z,12.50
2022-09-27T01:25:30.203Z,12.35
2022-09-27T01:26:30.140Z,12.44
2022-09-27T01:27:30.098Z,12.45
2022-09-27T01:28:30.055Z,12.51
2022-09-27T01:29:30.005Z,12.48
2022-09-27T01:30:29.963Z,12.29
2022-09-27T01:31:30.046Z,12.23
2022-09-27T01:32:29.873Z,12.28
2022-09-27T01:33:29.829Z,12.35
2022-09-27T01:34:29.782Z,12.32
2022-09-27T01:35:29.738Z,12.35
2022-09-27T01:36:29.688Z,12.35
2022-09-27T01:37:29.659Z,12.35
2022-09-27T01:38:29.599Z,12.28
2022-09-27T01:39:29.555Z,12.28
2022-09-27T01:40:29.550Z,12.33
2022-09-27T01:41:29.461Z,12.36
2022-09-27T01:42:29.447Z,12.29
2022-09-27T01:43:29.374Z,12.28
2022-09-27T01:44:29.332Z,12.29
2022-09-27T01:45:29.284Z,12.21
2022-09-27T01:46:29.317Z,12.29
2022-09-27T01:47:29.195Z,12.29
2022-09-27T01:48:29.174Z,12.20
2022-09-27T01:49:29.107Z,12.21
2022-09-27T01:50:29.060Z,12.14
2022-09-27T01:51:29.010Z,12.14
2022-09-27T01:52:28.967Z,12.00
2022-09-27T01:53:28.925Z,11.97
2022-09-27T01:54:28.900Z,11.83
2022-09-27T01:55:28.836Z,11.97
2022-09-27T01:56:28.788Z,11.91
2022-09-27T01:57:28.745Z,11.88
2022-09-27T01:58:28.700Z,11.81
2022-09-27T01:59:28.653Z,11.85
2022-09-27T02:00:28.640Z,11.81
2022-09-27T02:01:28.638Z,11.81
2022-09-27T02:02:28.578Z,11.83
2022-09-27T02:03:28.472Z,11.83
2022-09-27T02:04:28.426Z,11.78
2022-09-27T02:05:28.383Z,11.80
2022-09-27T02:06:28.521Z,11.81
2022-09-27T02:07:28.290Z,11.83
2022-09-27T02:08:28.246Z,11.78
2022-09-27T02:09:28.202Z,11.73
2022-09-27T02:10:28.157Z,11.71
2022-09-27T02:11:28.112Z,11.76
2022-09-27T02:12:28.100Z,11.80
2022-09-27T02:13:28.021Z,11.78
2022-09-27T02:14:27.982Z,11.78
2022-09-27T02:15:27.930Z,11.74
2022-09-27T02:16:27.888Z,11.71
2022-09-27T02:17:27.839Z,11.78
2022-09-27T02:18:27.907Z,11.77
2022-09-27T02:19:27.750Z,11.76
2022-09-27T02:20:27.705Z,11.73
2022-09-27T02:21:27.660Z,11.88
2022-09-27T02:22:27.615Z,11.86
2022-09-27T02:23:27.569Z,11.95
2022-09-27T02:24:27.567Z,11.86
2022-09-27T02:25:27.478Z,11.88
2022-09-27T02:26:27.437Z,11.81
2022-09-27T02:27:27.387Z,11.88
2022-09-27T02:28:27.343Z,11.80
2022-09-27T02:29:27.301Z,11.85
2022-09-27T02:30:27.271Z,11.76
2022-09-27T02:31:27.340Z,11.86
2022-09-27T02:32:27.160Z,11.93
2022-09-27T02:33:27.134Z,11.93
2022-09-27T02:34:27.069Z,11.93
2022-09-27T02:35:27.024Z,11.91
2022-09-27T02:36:27.002Z,11.93
2022-09-27T02:37:26.940Z,11.96
2022-09-27T02:38:26.901Z,11.93
2022-09-27T02:39:26.846Z,11.85
2022-09-27T02:40:26.833Z,11.89
2022-09-27T02:41:26.751Z,11.91
2022-09-27T02:42:26.721Z,11.95
2022-09-27T02:43:26.668Z,11.89
2022-09-27T02:44:26.623Z,11.91
2022-09-27T02:45:26.579Z,11.93
2022-09-27T02:46:26.644Z,12.00
2022-09-27T02:47:26.482Z,11.93
2022-09-27T02:48:26.537Z,11.88
2022-09-27T02:49:26.395Z,11.93
2022-09-27T02:50:26.356Z,12.07
2022-09-27T02:51:26.305Z,11.96
2022-09-27T02:52:26.261Z,12.10
2022-09-27T02:53:26.211Z,12.02
2022-09-27T02:54:26.347Z,12.05
2022-09-27T02:55:26.122Z,12.00
2022-09-27T02:56:26.084Z,12.03
2022-09-27T02:57:26.030Z,12.02
2022-09-27T02:58:25.989Z,11.99
2022-09-27T02:59:25.944Z,11.99
2022-09-27T03:00:25.915Z,12.08
2022-09-27T03:01:25.889Z,12.02
2022-09-27T03:02:25.863Z,12.07
2022-09-27T03:03:25.763Z,12.03
2022-09-27T03:04:25.720Z,12.07
2022-09-27T03:05:25.674Z,12.07
2022-09-27T03:06:25.810Z,12.14
2022-09-27T03:07:25.584Z,12.12
2022-09-27T03:08:25.540Z,12.12
2022-09-27T03:09:25.496Z,12.07
2022-09-27T03:10:25.452Z,12.15
2022-09-27T03:11:25.412Z,12.12
2022-09-27T03:12:25.388Z,12.15
2022-09-27T03:13:25.314Z,11.99
2022-09-27T03:14:25.273Z,12.02
2022-09-27T03:15:25.221Z,11.93
2022-09-27T03:16:25.242Z,12.03
2022-09-27T03:17:25.140Z,11.89
2022-09-27T03:18:25.104Z,12.05
2022-09-27T03:19:25.383Z,12.00
2022-09-27T03:20:25.003Z,12.12
2022-09-27T03:21:24.955Z,12.07
2022-09-27T03:22:24.910Z,12.08
2022-09-27T03:23:24.867Z,11.96
2022-09-27T03:24:24.822Z,11.99
2022-09-27T03:25:24.820Z,11.89
2022-09-27T03:26:24.745Z,11.93
2022-09-27T03:27:24.687Z,11.96
2022-09-27T03:28:24.639Z,11.97
2022-09-27T03:29:24.595Z,12.03
2022-09-27T03:30:24.554Z,12.03
2022-09-27T03:31:24.604Z,12.02
2022-09-27T03:32:24.461Z,11.99
2022-09-27T03:33:24.412Z,11.99
2022-09-27T03:34:24.368Z,12.05
2022-09-27T03:35:24.328Z,11.97
2022-09-27T03:36:24.280Z,12.03
2022-09-27T03:37:24.256Z,11.93
2022-09-27T03:38:24.220Z,11.91
2022-09-27T03:39:24.143Z,11.81
2022-09-27T03:40:24.126Z,11.88
2022-09-27T03:41:24.053Z,11.83
2022-09-27T03:42:24.007Z,11.89
2022-09-27T03:43:23.967Z,11.88
2022-09-27T03:44:23.945Z,11.95
2022-09-27T03:45:23.873Z,11.89
2022-09-27T03:46:23.891Z,11.89
2022-09-27T03:47:23.802Z,12.03
2022-09-27T03:48:27.979Z,12.00
2022-09-27T03:49:23.696Z,11.97
2022-09-27T03:50:23.649Z,11.89
2022-09-27T03:51:23.608Z,11.85
2022-09-27T03:52:23.562Z,11.86
2022-09-27T03:53:23.531Z,11.88
2022-09-27T03:54:23.472Z,11.83
2022-09-27T03:55:23.422Z,11.71
2022-09-27T03:56:23.379Z,11.71
2022-09-27T03:57:23.334Z,11.83
2022-09-27T03:58:23.289Z,11.83
2022-09-27T03:59:23.266Z,11.80
2022-09-27T04:00:23.202Z,11.71
2022-09-27T04:01:23.193Z,11.77
2022-09-27T04:02:23.200Z,11.83
2022-09-27T04:03:23.062Z,11.83
2022-09-27T04:04:23.019Z,11.78
2022-09-27T04:05:22.998Z,11.91
2022-09-27T04:06:22.945Z,11.85
2022-09-27T04:07:22.884Z,11.89
2022-09-27T04:08:22.838Z,11.89
2022-09-27T04:09:22.794Z,11.85
2022-09-27T04:10:22.750Z,11.86
2022-09-27T04:11:22.721Z,11.78
2022-09-27T04:12:22.662Z,11.88
2022-09-27T04:13:22.612Z,11.91
2022-09-27T04:14:22.565Z,11.97
2022-09-27T04:15:22.528Z,11.89
2022-09-27T04:16:22.526Z,11.81
2022-09-27T04:17:22.458Z,11.77
2022-09-27T04:18:22.388Z,11.70
2022-09-27T04:19:22.345Z,11.65
2022-09-27T04:20:22.299Z,11.70
2022-09-27T04:21:22.258Z,11.67
2022-09-27T04:22:22.206Z,11.65
2022-09-27T04:23:25.377Z,11.65
2022-09-27T04:24:22.121Z,11.67
2022-09-27T04:25:22.073Z,11.65
2022-09-27T04:26:22.025Z,11.74
2022-09-27T04:27:21.981Z,11.68
2022-09-27T04:28:21.937Z,11.62
2022-09-27T04:29:21.911Z,11.68
2022-09-27T04:30:21.851Z,11.60
2022-09-27T04:31:21.913Z,11.56
2022-09-27T04:32:21.754Z,11.68
2022-09-27T04:33:21.718Z,11.62
2022-09-27T04:34:21.665Z,11.58
2022-09-27T04:35:21.649Z,11.59
2022-09-27T04:36:21.576Z,11.58
2022-09-27T04:37:21.529Z,11.67
2022-09-27T04:38:21.495Z,11.55
2022-09-27T04:39:21.434Z,11.65
2022-09-27T04:40:21.454Z,11.67
2022-09-27T04:41:21.353Z,11.62
2022-09-27T04:42:21.304Z,11.56
2022-09-27T04:43:21.257Z,11.60
2022-09-27T04:44:21.226Z,11.63
2022-09-27T04:45:21.168Z,11.60
2022-09-27T04:46:21.218Z,11.65
2022-09-27T04:47:21.081Z,11.73
2022-09-27T04:48:21.061Z,11.65
2022-09-27T04:49:21.085Z,11.62
2022-09-27T04:50:20.938Z,11.56
2022-09-27T04:51:20.900Z,11.58
2022-09-27T04:52:20.853Z,11.62
2022-09-27T04:53:20.828Z,11.60
2022-09-27T04:54:20.763Z,11.56
2022-09-27T04:55:20.712Z,11.58
2022-09-27T04:56:20.670Z,11.44
2022-09-27T04:57:20.626Z,11.43
2022-09-27T04:58:20.580Z,11.48
2022-09-27T04:59:20.744Z,11.51
2022-09-27T05:00:20.488Z,11.45
2022-09-27T05:01:20.460Z,11.56
2022-09-27T05:02:20.466Z,11.51
2022-09-27T05:03:20.355Z,11.52
2022-09-27T05:04:20.311Z,11.55
2022-09-27T05:05:20.282Z,11.52
2022-09-27T05:06:20.218Z,11.55
2022-09-27T05:07:20.171Z,11.51
2022-09-27T05:08:20.130Z,11.60
2022-09-27T05:09:20.084Z,11.60
2022-09-27T05:10:20.040Z,11.59
2022-09-27T05:11:20.034Z,11.60
2022-09-27T05:12:19.949Z,11.62
2022-09-27T05:13:19.901Z,11.71
2022-09-27T05:14:19.914Z,11.67
2022-09-27T05:15:19.811Z,11.78
2022-09-27T05:16:19.830Z,11.81
2022-09-27T05:17:19.745Z,11.85
2022-09-27T05:18:19.683Z,11.80
2022-09-27T05:19:19.636Z,11.81
2022-09-27T05:20:19.585Z,11.78
2022-09-27T05:21:19.544Z,11.71
2022-09-27T05:22:19.499Z,11.89
2022-09-27T05:23:19.471Z,11.91
2022-09-27T05:24:19.406Z,11.86
2022-09-27T05:25:19.364Z,11.89
2022-09-27T05:26:19.331Z,11.88
2022-09-27T05:27:19.270Z,11.80
2022-09-27T05:28:19.231Z,11.89
2022-09-27T05:29:19.197Z,12.03
2022-09-27T05:30:19.139Z,11.97
2022-09-27T05:31:19.146Z,11.99
2022-09-27T05:32:19.046Z,12.03
2022-09-27T05:33:19.004Z,11.88
2022-09-27T05:34:18.961Z,11.89
2022-09-27T05:35:18.931Z,11.96
2022-09-27T05:36:18.868Z,11.81
2022-09-27T05:37:18.826Z,11.86
2022-09-27T05:38:18.832Z,11.86
2022-09-27T05:39:18.732Z,11.89
2022-09-27T05:40:37.076Z,11.74
2022-09-27T05:41:18.738Z,11.78
2022-09-27T05:42:18.596Z,11.88
2022-09-27T05:43:18.554Z,11.80
2022-09-27T05:44:18.508Z,11.74
2022-09-27T05:45:18.465Z,11.78
2022-09-27T05:46:18.492Z,11.83
2022-09-27T05:47:18.390Z,11.83
2022-09-27T05:48:18.346Z,11.89
2022-09-27T05:49:18.282Z,11.89
2022-09-27T05:50:18.238Z,11.89
2022-09-27T05:51:18.219Z,11.77
2022-09-27T05:52:19.212Z,11.86
2022-09-27T05:53:18.103Z,11.78
2022-09-27T05:54:18.064Z,11.89
2022-09-27T05:55:18.009Z,11.81
2022-09-27T05:56:17.968Z,11.86
2022-09-27T05:57:17.941Z,11.74
2022-09-27T05:58:17.881Z,11.86
2022-09-27T05:59:17.834Z,11.70
2022-09-27T06:03:47.028Z,11.37
2022-09-27T06:04:46.966Z,11.25
2022-09-27T06:05:51.060Z,11.15
2022-09-27T06:06:46.867Z,11.07
2022-09-27T06:07:46.821Z,11.10
2022-09-27T06:08:46.810Z,11.02
2022-09-27T06:09:46.761Z,10.92
2022-09-27T06:10:46.686Z,10.90
2022-09-27T06:11:46.629Z,10.87
2022-09-27T06:12:46.596Z,10.79
2022-09-27T06:13:46.542Z,10.71
2022-09-27T06:14:46.501Z,10.69
2022-09-27T06:15:46.472Z,10.61
2022-09-27T06:16:46.440Z,10.51
2022-09-27T06:17:46.359Z,10.49
2022-09-27T06:18:46.318Z,10.41
2022-09-27T06:19:46.275Z,10.45
2022-09-27T06:20:46.238Z,10.39
2022-09-27T06:21:46.180Z,10.42
2022-09-27T06:22:46.135Z,10.31
2022-09-27T06:23:46.808Z,10.25
2022-09-27T06:24:46.039Z,10.33
2022-09-27T06:25:46.004Z,10.24
2022-09-27T06:26:45.950Z,10.36
2022-09-27T06:27:45.900Z,10.25
2022-09-27T06:28:45.860Z,10.41
2022-09-27T06:29:45.816Z,10.38
2022-09-27T06:30:45.869Z,10.43
2022-09-27T06:31:45.721Z,10.45
2022-09-27T06:32:45.674Z,10.45
2022-09-27T06:33:45.628Z,10.45
2022-09-27T06:34:45.590Z,10.46
2022-09-27T06:35:45.572Z,10.51
2022-09-27T06:36:47.158Z,10.64
2022-09-27T06:37:45.461Z,10.62
2022-09-27T06:38:45.399Z,10.68
2022-09-27T06:39:45.356Z,10.65
2022-09-27T06:40:45.326Z,10.68
2022-09-27T06:41:45.268Z,10.83
2022-09-27T06:42:45.231Z,10.97
2022-09-27T06:43:45.198Z,11.10
2022-09-27T06:44:48.191Z,11.10
2022-09-27T06:45:45.132Z,11.13
2022-09-27T06:46:45.039Z,11.12
2022-09-27T06:47:44.997Z,11.16
2022-09-27T06:48:44.974Z,11.35
2022-09-27T06:49:44.903Z,11.37
2022-09-27T06:50:44.859Z,11.34
2022-09-27T06:51:44.815Z,11.44
2022-09-27T06:52:44.770Z,11.43
2022-09-27T06:53:44.724Z,11.48
2022-09-27T06:54:44.694Z,11.53
2022-09-27T06:55:44.637Z,11.45
2022-09-27T06:56:44.589Z,11.62
2022-09-27T06:57:44.544Z,11.51
2022-09-27T06:58:44.499Z,11.55
2022-09-27T06:59:44.451Z,11.52
2022-09-27T07:00:44.424Z,11.48
2022-09-27T07:01:44.492Z,11.65
2022-09-27T07:02:44.320Z,11.59
2022-09-27T07:03:44.310Z,11.59
2022-09-27T07:04:44.233Z,11.58
2022-09-27T07:05:44.182Z,11.67
2022-09-27T07:06:44.144Z,11.68
2022-09-27T07:07:44.095Z,11.83
2022-09-27T07:08:44.051Z,11.83
2022-09-27T07:09:44.019Z,11.99
2022-09-27T07:10:43.976Z,11.96
2022-09-27T07:11:43.917Z,12.07
2022-09-27T07:12:43.873Z,12.07
2022-09-27T07:13:43.834Z,12.11
2022-09-27T07:14:43.783Z,12.11
2022-09-27T07:15:43.735Z,12.08
2022-09-27T07:16:43.778Z,12.23
2022-09-27T07:17:43.649Z,12.12
2022-09-27T07:18:43.609Z,12.12
2022-09-27T07:19:43.564Z,12.26
2022-09-27T07:20:43.535Z,12.14
2022-09-27T07:21:43.474Z,12.17
2022-09-27T07:22:43.533Z,12.05
2022-09-27T07:23:43.395Z,12.12
2022-09-27T07:24:43.341Z,12.10
2022-09-27T07:25:43.294Z,12.05
2022-09-27T07:26:43.250Z,12.03
2022-09-27T07:27:43.208Z,12.00
2022-09-27T07:28:43.176Z,12.07
2022-09-27T07:29:43.117Z,11.89
2022-09-27T07:30:43.217Z,12.05
2022-09-27T07:31:43.025Z,12.00
2022-09-27T07:32:42.983Z,12.02
2022-09-27T07:33:43.636Z,12.00
2022-09-27T07:34:42.898Z,11.99
2022-09-27T07:35:42.848Z,11.96
2022-09-27T07:36:42.803Z,12.08
2022-09-27T07:37:42.763Z,12.17
2022-09-27T07:38:42.724Z,12.43
2022-09-27T07:39:42.693Z,12.47
2022-09-27T07:40:42.667Z,12.47
2022-09-27T07:41:42.591Z,12.57
2022-09-27T07:42:42.543Z,12.58
2022-09-27T07:43:42.499Z,12.45
2022-09-27T07:44:42.453Z,12.57
2022-09-27T07:45:42.470Z,12.70
2022-09-27T07:46:42.366Z,12.78
2022-09-27T07:47:42.321Z,12.75
2022-09-27T07:48:42.281Z,12.81
2022-09-27T07:49:42.236Z,12.95
2022-09-27T07:50:42.193Z,12.94
2022-09-27T07:51:42.166Z,12.88
2022-09-27T07:52:42.101Z,12.93
2022-09-27T07:53:42.061Z,12.94
2022-09-27T07:54:42.018Z,12.99
2022-09-27T07:55:41.968Z,13.05
2022-09-27T07:56:41.942Z,13.01
2022-09-27T07:57:41.906Z,12.98
2022-09-27T07:58:41.844Z,12.94
2022-09-27T07:59:41.795Z,13.06
2022-09-27T08:00:41.752Z,13.06
2022-09-27T08:01:41.706Z,13.05
2022-09-27T08:02:41.663Z,12.94
2022-09-27T08:03:41.630Z,12.95
2022-09-27T08:04:41.579Z,12.95
2022-09-27T08:05:41.530Z,12.95
2022-09-27T08:06:41.488Z,13.11
2022-09-27T08:07:41.441Z,13.28
2022-09-27T08:08:41.513Z,13.33
2022-09-27T08:09:41.359Z,13.33
2022-09-27T08:10:41.318Z,13.43
2022-09-27T08:11:41.269Z,13.62
2022-09-27T08:12:41.225Z,13.70
2022-09-27T08:13:41.181Z,13.86
2022-09-27T08:14:45.041Z,13.94
2022-09-27T08:15:41.101Z,14.01
2022-09-27T08:16:41.095Z,14.08
2022-09-27T08:17:41.006Z,14.15
2022-09-27T08:18:40.968Z,14.11
2022-09-27T08:19:40.921Z,13.98
2022-09-27T08:20:40.895Z,13.83
2022-09-27T08:21:40.835Z,13.87
2022-09-27T08:22:40.792Z,13.85
2022-09-27T08:23:40.754Z,13.78
2022-09-27T08:24:40.708Z,13.94
2022-09-27T08:25:40.667Z,13.87
2022-09-27T08:26:40.634Z,13.86
2022-09-27T08:27:40.607Z,13.98
2022-09-27T08:28:40.537Z,14.11
2022-09-27T08:29:40.493Z,14.16
2022-09-27T08:30:40.470Z,14.23
2022-09-27T08:31:40.431Z,14.25
2022-09-27T08:32:40.362Z,14.51
2022-09-27T08:33:41.694Z,14.44
2022-09-27T08:34:40.276Z,14.34
2022-09-27T08:35:40.238Z,14.22
2022-09-27T08:36:40.206Z,14.25
2022-09-27T08:37:40.148Z,14.34
2022-09-27T08:38:40.108Z,14.56
2022-09-27T08:39:40.778Z,14.56
2022-09-27T08:40:40.065Z,14.86
2022-09-27T08:41:39.978Z,14.93
2022-09-27T08:42:39.955Z,15.08
2022-09-27T08:43:39.892Z,15.25
2022-09-27T08:44:39.848Z,15.51
2022-09-27T08:45:39.824Z,15.65
2022-09-27T08:46:39.762Z,15.73
2022-09-27T08:47:39.722Z,15.72
2022-09-27T08:48:39.691Z,15.63
2022-09-27T08:49:39.648Z,15.54
2022-09-27T08:50:40.432Z,15.60
2022-09-27T08:51:39.553Z,15.75
2022-09-27T08:52:39.509Z,15.67
2022-09-27T08:53:39.475Z,15.59
2022-09-27T08:54:39.452Z,15.73
2022-09-27T08:55:39.386Z,15.72
2022-09-27T08:56:39.345Z,15.84
2022-09-27T08:57:39.303Z,15.81
2022-09-27T08:58:39.261Z,15.91
2022-09-27T08:59:39.216Z,16.00
2022-09-27T09:00:39.249Z,16.03
2022-09-27T09:01:39.184Z,16.09
2022-09-27T09:02:39.091Z,16.08
2022-09-27T09:03:39.049Z,16.05
2022-09-27T09:04:39.004Z,15.94
2022-09-27T09:05:38.967Z,15.91
2022-09-27T09:06:38.943Z,15.76
2022-09-27T09:07:38.882Z,15.76
2022-09-27T09:08:42.400Z,15.69
2022-09-27T09:09:38.798Z,15.75
2022-09-27T09:10:38.758Z,15.69
2022-09-27T09:11:38.714Z,15.87
2022-09-27T09:12:38.680Z,15.81
2022-09-27T09:13:38.633Z,15.75
2022-09-27T09:14:38.585Z,15.67
2022-09-27T09:15:38.548Z,15.72
2022-09-27T09:16:38.509Z,15.62
2022-09-27T09:17:38.480Z,15.73
2022-09-27T09:18:38.422Z,15.70
2022-09-27T09:19:38.380Z,15.67
2022-09-27T09:20:38.335Z,15.67
2022-09-27T09:21:38.291Z,15.67
2022-09-27T09:22:38.264Z,15.69
2022-09-27T09:23:38.238Z,15.87
2022-09-27T09:24:38.165Z,15.76
2022-09-27T09:25:38.128Z,15.80
2022-09-27T09:26:38.077Z,15.83
2022-09-27T09:27:38.039Z,15.84
2022-09-27T09:28:37.999Z,15.83
2022-09-27T09:29:37.990Z,15.91
2022-09-27T09:30:37.916Z,15.90
2022-09-27T09:31:37.882Z,16.00
2022-09-27T09:32:37.833Z,16.13
2022-09-27T09:33:37.792Z,16.26
2022-09-27T09:34:37.750Z,16.34
2022-09-27T09:35:37.725Z,16.18
2022-09-27T09:36:37.661Z,16.34
2022-09-27T09:37:37.624Z,16.51
2022-09-27T09:38:37.582Z,16.43
2022-09-27T09:39:37.537Z,16.59
2022-09-27T09:40:37.542Z,16.64
2022-09-27T09:41:37.490Z,16.77
2022-09-27T09:42:37.408Z,17.14
2022-09-27T09:43:37.375Z,17.66
2022-09-27T09:44:37.331Z,18.45
2022-09-27T09:45:37.326Z,18.83
2022-09-27T09:46:38.111Z,18.92
2022-09-27T09:47:37.229Z,18.83
2022-09-27T09:48:37.165Z,18.70
2022-09-27T09:49:37.129Z,18.74
2022-09-27T09:50:37.090Z,18.60
2022-09-27T09:51:37.044Z,18.27
2022-09-27T09:52:37.004Z,18.23
2022-09-27T09:53:37.145Z,17.95
2022-09-27T09:54:36.923Z,17.63
2022-09-27T09:55:36.891Z,17.69
2022-09-27T09:56:36.843Z,17.53
2022-09-27T09:57:36.806Z,17.39
2022-09-27T09:58:36.761Z,17.32
2022-09-27T09:59:36.735Z,17.32
2022-09-27T10:00:36.711Z,17.07
2022-09-27T10:01:36.637Z,16.80
2022-09-27T10:02:36.658Z,16.64
2022-09-27T10:03:36.573Z,16.65
2022-09-27T10:04:36.513Z,16.58
2022-09-27T10:05:36.475Z,16.22
2022-09-27T10:06:36.433Z,15.90
2022-09-27T10:07:36.391Z,15.57
2022-09-27T10:08:36.346Z,15.47
2022-09-27T10:09:36.320Z,15.02
2022-09-27T10:10:36.263Z,14.92
2022-09-27T10:11:36.222Z,14.90
2022-09-27T10:12:36.181Z,14.94
2022-09-27T10:13:36.134Z,15.08
2022-09-27T10:14:36.097Z,15.07
2022-09-27T10:15:36.060Z,15.07
2022-09-27T10:16:36.040Z,15.07
2022-09-27T10:17:35.983Z,15.30
2022-09-27T10:18:35.926Z,15.41
2022-09-27T10:19:35.884Z,15.50
2022-09-27T10:20:35.849Z,15.41
2022-09-27T10:21:35.804Z,15.47
2022-09-27T10:22:35.755Z,15.47
2022-09-27T10:23:35.707Z,15.54
2022-09-27T10:24:35.670Z,15.67
2022-09-27T10:25:35.625Z,15.48
2022-09-27T10:26:35.613Z,15.26
2022-09-27T10:27:35.539Z,15.35
2022-09-27T10:28:35.493Z,15.51
2022-09-27T10:29:37.899Z,15.52
2022-09-27T10:30:35.455Z,15.57
2022-09-27T10:31:35.391Z,15.41
2022-09-27T10:32:35.330Z,15.47
2022-09-27T10:33:35.289Z,15.54
2022-09-27T10:34:35.248Z,15.55
2022-09-27T10:35:35.242Z,15.67
2022-09-27T10:36:35.181Z,15.59
2022-09-27T10:37:35.126Z,15.57
2022-09-27T10:38:35.082Z,15.55
2022-09-27T10:39:35.037Z,15.52
2022-09-27T10:40:35.056Z,15.43
2022-09-27T10:41:34.950Z,15.50
2022-09-27T10:42:34.933Z,15.54
2022-09-27T10:43:34.872Z,15.52
2022-09-27T10:44:34.825Z,15.50
2022-09-27T10:45:34.818Z,15.37
2022-09-27T10:46:34.744Z,15.36
2022-09-27T10:47:34.704Z,15.50
2022-09-27T10:48:34.667Z,15.37
2022-09-27T10:49:34.618Z,15.43
2022-09-27T10:50:52.886Z,15.48
2022-09-27T10:51:34.531Z,15.19
2022-09-27T10:52:34.495Z,15.30
2022-09-27T10:53:34.448Z,15.10
2022-09-27T10:54:34.397Z,15.19
2022-09-27T10:55:34.357Z,15.07
2022-09-27T10:56:34.316Z,15.14
2022-09-27T10:57:34.283Z,15.05
2022-09-27T10:58:34.232Z,15.17
2022-09-27T10:59:34.190Z,15.30
2022-09-27T11:00:34.145Z,15.35
2022-09-27T11:01:34.106Z,15.33
2022-09-27T11:02:34.079Z,15.37
2022-09-27T11:03:34.018Z,15.37
2022-09-27T11:04:34.030Z,15.48
2022-09-27T11:05:33.938Z,15.62
2022-09-27T11:06:33.890Z,15.51
2022-09-27T11:07:33.853Z,15.70
2022-09-27T11:08:33.862Z,15.81
2022-09-27T11:09:33.763Z,15.81
2022-09-27T11:10:37.148Z,15.72
2022-09-27T11:11:33.680Z,15.67
2022-09-27T11:12:33.637Z,15.87
2022-09-27T11:13:33.593Z,15.81
2022-09-27T11:14:33.570Z,15.59
2022-09-27T11:15:33.507Z,15.69
2022-09-27T11:16:33.535Z,15.76
2022-09-27T11:17:33.422Z,15.59
2022-09-27T11:18:33.499Z,15.50
2022-09-27T11:19:33.343Z,15.51
2022-09-27T11:20:33.297Z,15.69
2022-09-27T11:21:33.257Z,15.84
2022-09-27T11:22:33.211Z,15.80
2022-09-27T11:23:33.171Z,15.87
2022-09-27T11:24:33.153Z,15.92
2022-09-27T11:25:33.089Z,16.00
2022-09-27T11:26:33.045Z,16.02
2022-09-27T11:27:33.000Z,16.06
2022-09-27T11:28:32.958Z,16.25
2022-09-27T11:29:32.919Z,16.37
2022-09-27T11:30:32.893Z,16.47
2022-09-27T11:31:32.877Z,16.47
2022-09-27T11:32:32.796Z,16.47
2022-09-27T11:33:32.748Z,16.50
2022-09-27T11:34:32.710Z,16.69
2022-09-27T11:35:32.664Z,16.82
2022-09-27T11:36:32.647Z,17.07
2022-09-27T11:37:32.587Z,17.14
2022-09-27T11:38:52.252Z,17.31
2022-09-27T11:39:32.503Z,17.27
2022-09-27T11:40:32.528Z,17.27
2022-09-27T11:41:32.423Z,17.42
2022-09-27T11:42:32.415Z,17.38
2022-09-27T11:43:32.332Z,17.37
2022-09-27T11:44:32.289Z,17.23
2022-09-27T11:45:50.426Z,17.12
2022-09-27T11:46:40.260Z,16.97
2022-09-27T11:47:32.234Z,16.80
2022-09-27T11:48:32.141Z,16.66
2022-09-27T11:49:32.085Z,16.61
2022-09-27T11:50:32.046Z,16.36
2022-09-27T11:51:32.003Z,16.13
2022-09-27T11:52:31.956Z,15.94
2022-09-27T11:53:31.939Z,15.92
2022-09-27T11:54:31.884Z,15.94
2022-09-27T11:55:31.849Z,16.03
2022-09-27T11:56:31.790Z,16.03
2022-09-27T11:57:31.751Z,15.96
2022-09-27T11:58:31.710Z,16.06
2022-09-27T11:59:31.679Z,15.88
2022-09-27T12:00:31.623Z,15.80
2022-09-27T12:01:31.635Z,15.83
2022-09-27T12:02:31.634Z,15.83
2022-09-27T12:03:31.496Z,15.81
2022-09-27T12:04:31.468Z,15.80
2022-09-27T12:05:31.414Z,15.99
2022-09-27T12:06:31.369Z,16.05
2022-09-27T12:07:31.330Z,16.08
2022-09-27T12:08:31.280Z,16.09
2022-09-27T12:09:31.239Z,16.13
2022-09-27T12:10:31.217Z,16.29
2022-09-27T12:11:31.157Z,16.34
2022-09-27T12:12:31.112Z,16.26
2022-09-27T12:13:31.070Z,16.16
2022-09-27T12:14:31.026Z,16.13
2022-09-27T12:15:30.999Z,16.26
2022-09-27T12:16:30.946Z,16.26
2022-09-27T12:17:30.907Z,16.18
2022-09-27T12:18:30.860Z,16.09
2022-09-27T12:19:30.819Z,16.00
2022-09-27T12:20:30.796Z,16.36
2022-09-27T12:21:30.736Z,16.24
2022-09-27T12:22:57.101Z,16.22
2022-09-27T12:23:34.653Z,16.13
2022-09-27T12:24:30.860Z,16.24
2022-09-27T12:25:30.563Z,16.13
2022-09-27T12:26:30.557Z,15.99
2022-09-27T12:27:30.496Z,15.92
2022-09-27T12:28:30.435Z,15.83
2022-09-27T12:29:30.397Z,15.70
2022-09-27T12:30:30.354Z,15.78
2022-09-27T12:31:30.772Z,15.80
2022-09-27T12:32:30.286Z,15.88
2022-09-27T12:33:30.884Z,15.84
2022-09-27T12:34:30.181Z,15.72
2022-09-27T12:35:30.142Z,15.62
2022-09-27T12:36:31.326Z,15.59
2022-09-27T12:37:30.055Z,15.47
2022-09-27T12:38:30.018Z,15.47
2022-09-27T12:39:29.973Z,15.36
2022-09-27T12:40:29.960Z,15.36
2022-09-27T12:41:29.882Z,15.17
2022-09-27T12:42:29.863Z,15.08
2022-09-27T12:43:29.808Z,14.90
2022-09-27T12:44:29.752Z,14.94
2022-09-27T12:45:29.737Z,15.14
2022-09-27T12:46:29.707Z,15.18
2022-09-27T12:47:29.629Z,15.18
2022-09-27T12:48:29.587Z,15.23
2022-09-27T12:49:29.544Z,15.27
2022-09-27T12:50:29.549Z,15.26
2022-09-27T12:51:29.452Z,15.27
2022-09-27T12:52:29.413Z,15.33
2022-09-27T12:53:29.368Z,15.33
2022-09-27T12:54:29.330Z,15.29
2022-09-27T12:55:29.313Z,15.35